Aviation Digital Data Service (ADDS)

Output produced by METARs form (2112 UTC 21 September 2021)
found at http://www.aviationweather.gov/metar/data/
 
MYNN 211515Z 2118/2218 11008KT 9000 TSRA FEW018CB SCT025 FM 220600 09009KT 9999
FEW018CB SCT025